Time;durP1;ratioP1;P1;durP2;ratioP2;P2;SDS_P1;SDS_P2;PMS_P1;PMS_P2;Temp;Humidity;BMP_temperature;BMP_pressure;BME280_temperature;BME280_humidity;BME280_pressure;Samples;Min_cycle;Max_cycle;Signal;HPM_P1;HPM_P2
2021/06/10 00:00:02;;;;;;;;;;;13.30;99.90;;;;;;5091042;28;19918;-70
2021/06/10 00:02:27;;;;;;;;;;;13.30;99.90;;;;;;5088120;28;19949;-69
2021/06/10 00:04:53;;;;;;;;;;;13.30;99.90;;;;;;5090914;28;19912;-69
2021/06/10 00:07:19;;;;;;;;;;;13.30;99.90;;;;;;5085252;28;19912;-70
2021/06/10 00:09:45;;;;;;;;;;;13.20;99.90;;;;;;5090491;28;20403;-69
2021/06/10 00:12:12;;;;;;;;;;;13.30;99.90;;;;;;5089207;28;19908;-69
2021/06/10 00:14:38;;;;;;;;;;;13.30;99.90;;;;;;5090163;28;20379;-69
2021/06/10 00:17:03;;;;;;;;;;;13.30;99.90;;;;;;5084249;28;19954;-69
2021/06/10 00:19:29;;;;;;;;;;;13.20;99.90;;;;;;5088670;28;19951;-69
2021/06/10 00:21:54;;;;;;;;;;;13.30;99.90;;;;;;5090962;28;19915;-70
2021/06/10 00:24:20;;;;;;;;;;;13.20;99.90;;;;;;5081660;28;19908;-69
2021/06/10 00:26:45;;;;;;;;;;;13.20;99.90;;;;;;5089612;28;19908;-69
2021/06/10 00:29:11;;;;;;;;;;;13.20;99.90;;;;;;5095502;28;19907;-69
2021/06/10 00:31:36;;;;;;;;;;;13.10;99.90;;;;;;5114502;28;19954;-71
2021/06/10 00:34:02;;;;;;;;;;;12.90;99.90;;;;;;5098097;28;19978;-69
2021/06/10 00:36:27;;;;;;;;;;;12.90;99.90;;;;;;5093316;28;19951;-69
2021/06/10 00:38:53;;;;;;;;;;;12.80;99.90;;;;;;5089868;28;20277;-70
2021/06/10 00:41:19;;;;;;;;;;;12.80;99.90;;;;;;5093878;28;19919;-73
2021/06/10 00:43:45;;;;;;;;;;;12.80;99.90;;;;;;5090250;28;19916;-72
2021/06/10 00:46:10;;;;;;;;;;;12.80;99.90;;;;;;5088920;28;19914;-69
2021/06/10 00:48:36;;;;;;;;;;;12.90;99.90;;;;;;5093877;28;19969;-69
2021/06/10 00:51:02;;;;;;;;;;;12.90;99.90;;;;;;5089657;28;20350;-69
2021/06/10 00:53:27;;;;;;;;;;;12.90;99.90;;;;;;5091926;28;19908;-70
2021/06/10 00:55:57;;;;;;;;;;;13.00;99.90;;;;;;5092669;28;20320;-71
2021/06/10 00:58:23;;;;;;;;;;;12.90;99.90;;;;;;5084326;28;19969;-69
2021/06/10 01:00:48;;;;;;;;;;;12.90;99.90;;;;;;5093677;28;19916;-69
2021/06/10 01:03:14;;;;;;;;;;;12.80;99.90;;;;;;5093314;28;19993;-70
2021/06/10 01:05:41;;;;;;;;;;;12.80;99.90;;;;;;5096924;28;19908;-70
2021/06/10 01:08:15;;;;;;;;;;;12.80;99.90;;;;;;5113519;28;20298;-69
2021/06/10 01:10:53;;;;;;;;;;;12.70;99.90;;;;;;5098788;28;19908;-69
2021/06/10 01:13:27;;;;;;;;;;;12.70;99.90;;;;;;5093366;28;19916;-69
2021/06/10 01:15:55;;;;;;;;;;;12.70;99.90;;;;;;5086610;28;19972;-69
2021/06/10 01:18:21;;;;;;;;;;;12.70;99.90;;;;;;5093144;28;19908;-69
2021/06/10 01:20:47;;;;;;;;;;;12.70;99.90;;;;;;5093462;28;19915;-69
2021/06/10 01:23:19;;;;;;;;;;;12.60;99.90;;;;;;5092991;28;19912;-69
2021/06/10 01:25:53;;;;;;;;;;;12.60;99.90;;;;;;5084812;28;20311;-69
2021/06/10 01:28:21;;;;;;;;;;;12.60;99.90;;;;;;5093074;28;19965;-69
2021/06/10 01:30:46;;;;;;;;;;;12.70;99.90;;;;;;5085266;28;19908;-69
2021/06/10 01:33:20;;;;;;;;;;;12.60;99.90;;;;;;5092849;28;19915;-73
2021/06/10 01:36:12;;;;;;;;;;;12.70;99.90;;;;;;5087654;28;19909;-69
2021/06/10 01:38:39;;;;;;;;;;;12.70;99.90;;;;;;5081405;28;19919;-69
2021/06/10 01:41:05;;;;;;;;;;;12.70;99.90;;;;;;5091927;28;19970;-70
2021/06/10 01:43:33;;;;;;;;;;;12.70;99.90;;;;;;5089250;28;19908;-70
2021/06/10 01:45:59;;;;;;;;;;;12.70;99.90;;;;;;5106091;28;20365;-70
2021/06/10 01:48:24;;;;;;;;;;;12.60;99.90;;;;;;5098565;28;19908;-73
2021/06/10 01:50:52;;;;;;;;;;;12.60;99.90;;;;;;5092661;28;19912;-69
2021/06/10 01:53:18;;;;;;;;;;;12.60;99.90;;;;;;5092689;28;20362;-70
2021/06/10 01:55:45;;;;;;;;;;;12.60;99.90;;;;;;5091846;28;20014;-69
2021/06/10 01:58:11;;;;;;;;;;;12.60;99.90;;;;;;5092634;28;19914;-69
2021/06/10 02:00:37;;;;;;;;;;;12.60;99.90;;;;;;5092277;28;19908;-70
2021/06/10 02:03:03;;;;;;;;;;;12.60;99.90;;;;;;5092485;28;20269;-69
2021/06/10 02:05:30;;;;;;;;;;;12.60;99.90;;;;;;5092284;28;20004;-70
2021/06/10 02:07:56;;;;;;;;;;;12.50;99.90;;;;;;5092145;28;20009;-70
2021/06/10 02:10:23;;;;;;;;;;;12.50;99.90;;;;;;5092439;28;20407;-70
2021/06/10 02:12:49;;;;;;;;;;;12.50;99.90;;;;;;5092408;28;20400;-72
2021/06/10 02:15:15;;;;;;;;;;;12.50;99.90;;;;;;5092653;28;19914;-69
2021/06/10 02:17:41;;;;;;;;;;;12.50;99.90;;;;;;5089663;28;19912;-69
2021/06/10 02:20:06;;;;;;;;;;;12.40;99.90;;;;;;5103003;28;19911;-70
2021/06/10 02:22:32;;;;;;;;;;;12.30;99.90;;;;;;5112381;28;20254;-69
2021/06/10 02:24:58;;;;;;;;;;;12.20;99.90;;;;;;5112480;28;19969;-69
2021/06/10 02:27:24;;;;;;;;;;;12.10;99.90;;;;;;5111636;28;20353;-70
2021/06/10 02:29:49;;;;;;;;;;;12.10;99.90;;;;;;5112542;28;19915;-73
2021/06/10 02:32:14;;;;;;;;;;;12.10;99.90;;;;;;5111917;28;19935;-69
2021/06/10 02:34:40;;;;;;;;;;;12.20;99.90;;;;;;5112428;28;19921;-70
2021/06/10 02:37:06;;;;;;;;;;;12.20;99.90;;;;;;5111688;28;19912;-70
2021/06/10 02:39:36;;;;;;;;;;;12.20;99.90;;;;;;5111897;28;19956;-72
2021/06/10 02:42:02;;;;;;;;;;;12.20;99.90;;;;;;5112082;28;19912;-72
2021/06/10 02:44:28;;;;;;;;;;;12.20;99.90;;;;;;5111949;28;19995;-69
2021/06/10 02:46:54;;;;;;;;;;;12.20;99.90;;;;;;5110926;28;19908;-69
2021/06/10 02:49:20;;;;;;;;;;;12.20;99.90;;;;;;5091060;28;19960;-71
2021/06/10 02:51:46;;;;;;;;;;;12.20;99.90;;;;;;5090610;28;19998;-69
2021/06/10 02:54:15;;;;;;;;;;;12.20;99.90;;;;;;5091753;28;20332;-69
2021/06/10 02:56:41;;;;;;;;;;;12.20;99.90;;;;;;5090819;28;20398;-69
2021/06/10 02:59:07;;;;;;;;;;;12.30;99.90;;;;;;5091370;28;20003;-70
2021/06/10 03:01:35;;;;;;;;;;;12.30;99.90;;;;;;5090544;28;20084;-70
2021/06/10 03:04:02;;;;;;;;;;;12.20;99.90;;;;;;5085610;28;20262;-70
2021/06/10 03:06:27;;;;;;;;;;;12.20;99.90;;;;;;5090780;28;20379;-69
2021/06/10 03:08:53;;;;;;;;;;;12.20;99.90;;;;;;5091439;28;19908;-70
2021/06/10 03:11:21;;;;;;;;;;;12.20;99.90;;;;;;5091461;28;20059;-70
2021/06/10 03:13:47;;;;;;;;;;;12.20;99.90;;;;;;5091183;28;19912;-69
2021/06/10 03:16:13;;;;;;;;;;;12.10;99.90;;;;;;5090772;28;20430;-70
2021/06/10 03:18:39;;;;;;;;;;;12.10;99.90;;;;;;5090879;28;19916;-70
2021/06/10 03:21:05;;;;;;;;;;;12.10;99.90;;;;;;5091683;28;19931;-71
2021/06/10 03:23:30;;;;;;;;;;;12.10;99.90;;;;;;5082352;28;19909;-71
2021/06/10 03:25:58;;;;;;;;;;;12.20;99.90;;;;;;5090632;28;20288;-70
2021/06/10 03:28:24;;;;;;;;;;;12.20;99.90;;;;;;5091076;28;19912;-69
2021/06/10 03:30:50;;;;;;;;;;;12.20;99.90;;;;;;5091237;28;19908;-69
2021/06/10 03:33:16;;;;;;;;;;;12.20;99.90;;;;;;5091089;28;19915;-69
2021/06/10 03:35:42;;;;;;;;;;;12.20;99.90;;;;;;5090211;28;20365;-69
2021/06/10 03:38:08;;;;;;;;;;;12.10;99.90;;;;;;5091124;28;19909;-70
2021/06/10 03:40:34;;;;;;;;;;;12.10;99.90;;;;;;5090759;28;20438;-69
2021/06/10 03:42:59;;;;;;;;;;;12.20;99.90;;;;;;5089647;28;19987;-69
2021/06/10 03:45:26;;;;;;;;;;;12.20;99.90;;;;;;5090992;28;19909;-71
2021/06/10 03:47:52;;;;;;;;;;;12.20;99.90;;;;;;5089701;28;19908;-70
2021/06/10 03:50:17;;;;;;;;;;;12.20;99.90;;;;;;5090976;28;20004;-69
2021/06/10 03:52:44;;;;;;;;;;;12.10;99.90;;;;;;5087399;28;19959;-69
2021/06/10 03:55:10;;;;;;;;;;;12.10;99.90;;;;;;5086413;28;19919;-70
2021/06/10 03:57:36;;;;;;;;;;;12.20;99.90;;;;;;5089669;28;20373;-72
2021/06/10 04:00:04;;;;;;;;;;;12.20;99.90;;;;;;5090906;28;19912;-70
2021/06/10 04:02:29;;;;;;;;;;;12.30;99.90;;;;;;5085688;28;19916;-72
2021/06/10 04:04:55;;;;;;;;;;;12.30;99.90;;;;;;5094758;28;19915;-69
2021/06/10 04:07:21;;;;;;;;;;;12.40;99.90;;;;;;5094281;28;19908;-69
2021/06/10 04:09:47;;;;;;;;;;;12.40;99.90;;;;;;5094669;28;19953;-69
2021/06/10 04:12:12;;;;;;;;;;;12.50;99.90;;;;;;5094400;28;19915;-70
2021/06/10 04:14:37;;;;;;;;;;;12.50;99.90;;;;;;5094395;28;19908;-73
2021/06/10 04:17:03;;;;;;;;;;;12.60;99.90;;;;;;5093936;28;19908;-69
2021/06/10 04:19:29;;;;;;;;;;;12.60;99.90;;;;;;5094067;28;19962;-69
2021/06/10 04:21:54;;;;;;;;;;;12.70;99.90;;;;;;5094539;28;19999;-69
2021/06/10 04:24:20;;;;;;;;;;;12.80;99.90;;;;;;5094263;28;20323;-70
2021/06/10 04:26:47;;;;;;;;;;;12.90;99.90;;;;;;5093681;28;19951;-72
2021/06/10 04:29:12;;;;;;;;;;;12.90;99.90;;;;;;5093893;28;19912;-69
2021/06/10 04:31:38;;;;;;;;;;;13.00;99.90;;;;;;5094170;28;20277;-69
2021/06/10 04:34:03;;;;;;;;;;;13.00;99.90;;;;;;5089053;28;20202;-70
2021/06/10 04:36:29;;;;;;;;;;;13.10;99.90;;;;;;5092998;28;19919;-70
2021/06/10 04:38:55;;;;;;;;;;;13.20;99.90;;;;;;5093808;28;19912;-70
2021/06/10 04:41:20;;;;;;;;;;;13.30;99.90;;;;;;5093850;28;19999;-72
2021/06/10 04:43:46;;;;;;;;;;;13.30;99.90;;;;;;5093999;28;19919;-69
2021/06/10 04:46:11;;;;;;;;;;;13.40;99.90;;;;;;5093117;28;19908;-69
2021/06/10 04:48:37;;;;;;;;;;;13.50;99.90;;;;;;5093559;28;19908;-70
2021/06/10 04:51:03;;;;;;;;;;;13.60;99.90;;;;;;5093853;28;19919;-70
2021/06/10 04:53:29;;;;;;;;;;;13.60;99.90;;;;;;5093908;28;19912;-70
2021/06/10 04:55:54;;;;;;;;;;;13.70;99.90;;;;;;5092635;28;19908;-72
2021/06/10 04:58:20;;;;;;;;;;;13.80;99.90;;;;;;5093570;28;19958;-70
2021/06/10 05:00:45;;;;;;;;;;;13.90;99.90;;;;;;5093673;28;20377;-70
2021/06/10 05:03:11;;;;;;;;;;;14.10;99.90;;;;;;5088616;28;19912;-70
2021/06/10 05:05:39;;;;;;;;;;;14.10;99.90;;;;;;5092817;28;19953;-69
2021/06/10 05:08:04;;;;;;;;;;;14.20;99.90;;;;;;5093526;28;19914;-70
2021/06/10 05:10:30;;;;;;;;;;;14.30;99.90;;;;;;5093376;28;20336;-70
2021/06/10 05:12:55;;;;;;;;;;;14.40;99.90;;;;;;5093204;28;20257;-69
2021/06/10 05:15:21;;;;;;;;;;;14.40;99.90;;;;;;5092298;28;19999;-70
2021/06/10 05:17:46;;;;;;;;;;;14.30;99.90;;;;;;5092334;28;19915;-69
2021/06/10 05:20:12;;;;;;;;;;;14.50;99.90;;;;;;5093354;28;19912;-70
2021/06/10 05:22:38;;;;;;;;;;;14.60;99.90;;;;;;5093438;28;20330;-70
2021/06/10 05:25:04;;;;;;;;;;;14.80;99.90;;;;;;5092890;28;20376;-70
2021/06/10 05:27:29;;;;;;;;;;;14.90;99.90;;;;;;5092464;28;20002;-72
2021/06/10 05:29:55;;;;;;;;;;;15.10;99.90;;;;;;5092963;28;19915;-69
2021/06/10 05:32:20;;;;;;;;;;;15.40;99.90;;;;;;5088465;28;20004;-69
2021/06/10 05:34:46;;;;;;;;;;;15.60;99.90;;;;;;5092525;28;19908;-70
2021/06/10 05:37:11;;;;;;;;;;;15.80;99.90;;;;;;5090328;28;19912;-72
2021/06/10 05:39:37;;;;;;;;;;;16.00;99.90;;;;;;5091864;28;19963;-69
2021/06/10 05:42:02;;;;;;;;;;;16.40;99.90;;;;;;5092553;28;20331;-69
2021/06/10 05:44:28;;;;;;;;;;;16.70;99.90;;;;;;5092867;28;19962;-70
2021/06/10 05:46:53;;;;;;;;;;;17.10;99.90;;;;;;5091991;28;20004;-71
2021/06/10 05:49:19;;;;;;;;;;;17.60;99.90;;;;;;5092648;28;20126;-70
2021/06/10 05:51:44;;;;;;;;;;;17.80;99.90;;;;;;5092707;28;19915;-70
2021/06/10 05:54:10;;;;;;;;;;;18.20;99.90;;;;;;5092509;28;19965;-70
2021/06/10 05:56:36;;;;;;;;;;;18.40;99.90;;;;;;5084917;28;20007;-72
2021/06/10 05:59:01;;;;;;;;;;;18.50;99.90;;;;;;5092317;28;20567;-70
2021/06/10 06:01:27;;;;;;;;;;;18.60;99.90;;;;;;5092173;28;19950;-70
2021/06/10 06:03:52;;;;;;;;;;;18.80;99.90;;;;;;5086737;28;19908;-70
2021/06/10 06:06:19;;;;;;;;;;;19.10;99.90;;;;;;5091235;28;20341;-70
2021/06/10 06:08:45;;;;;;;;;;;19.30;99.90;;;;;;5092214;28;19944;-70
2021/06/10 06:11:10;;;;;;;;;;;19.60;99.90;;;;;;5092196;28;19947;-71
2021/06/10 06:13:48;;;;;;;;;;;19.70;99.90;;;;;;5092212;28;19999;-70
2021/06/10 06:16:17;;;;;;;;;;;19.90;99.90;;;;;;5082223;28;19928;-71
2021/06/10 06:18:42;;;;;;;;;;;20.10;99.90;;;;;;5070915;28;20027;-70
2021/06/10 06:21:08;;;;;;;;;;;20.10;99.90;;;;;;5071789;28;20003;-70
2021/06/10 06:23:34;;;;;;;;;;;20.20;99.90;;;;;;5071518;28;20292;-70
2021/06/10 06:26:00;;;;;;;;;;;20.30;99.90;;;;;;5070679;28;19916;-70
2021/06/10 06:28:25;;;;;;;;;;;20.70;99.90;;;;;;5078323;28;19916;-70
2021/06/10 06:30:51;;;;;;;;;;;21.20;99.90;;;;;;5087053;28;20285;-70
2021/06/10 06:33:17;;;;;;;;;;;21.70;99.90;;;;;;5076570;28;19953;-71
2021/06/10 06:35:44;;;;;;;;;;;22.00;99.90;;;;;;5081941;28;20506;-72
2021/06/10 06:38:11;;;;;;;;;;;22.10;99.90;;;;;;5082464;28;20360;-70
2021/06/10 06:40:36;;;;;;;;;;;22.10;99.90;;;;;;5088273;28;19923;-70
2021/06/10 06:43:02;;;;;;;;;;;22.50;99.90;;;;;;5089441;28;19912;-71
2021/06/10 06:45:27;;;;;;;;;;;23.10;99.90;;;;;;5090782;28;19908;-72
2021/06/10 06:47:53;;;;;;;;;;;23.40;99.90;;;;;;5090608;28;19912;-70
2021/06/10 06:50:19;;;;;;;;;;;23.70;99.90;;;;;;5089938;28;20369;-71
2021/06/10 06:52:44;;;;;;;;;;;24.20;99.90;;;;;;5091093;28;20373;-71
2021/06/10 06:55:10;;;;;;;;;;;23.90;99.90;;;;;;5086089;28;19961;-70
2021/06/10 06:57:36;;;;;;;;;;;24.00;99.90;;;;;;5084253;28;19915;-71
2021/06/10 07:00:02;;;;;;;;;;;24.10;99.90;;;;;;5085860;28;19916;-73
2021/06/10 07:02:28;;;;;;;;;;;24.80;99.90;;;;;;5091033;28;19961;-70
2021/06/10 07:04:54;;;;;;;;;;;25.20;99.90;;;;;;5111579;28;19907;-74
2021/06/10 07:07:19;;;;;;;;;;;25.10;99.90;;;;;;5083417;28;20373;-71
2021/06/10 07:09:45;;;;;;;;;;;25.60;99.90;;;;;;5086323;28;20251;-73
2021/06/10 07:12:10;;;;;;;;;;;25.60;99.90;;;;;;5089684;28;20353;-70
2021/06/10 07:14:36;;;;;;;;;;;25.20;99.90;;;;;;5084107;28;19915;-71
2021/06/10 07:17:02;;;;;;;;;;;25.50;99.90;;;;;;5088894;28;19972;-71
2021/06/10 07:19:27;;;;;;;;;;;25.50;99.90;;;;;;5089520;28;20061;-70
2021/06/10 07:21:53;;;;;;;;;;;25.90;99.90;;;;;;5090714;28;19908;-71
2021/06/10 07:24:18;;;;;;;;;;;26.10;99.90;;;;;;5080886;28;19924;-72
2021/06/10 07:26:44;;;;;;;;;;;26.10;99.90;;;;;;5088496;28;19908;-72
2021/06/10 07:29:14;;;;;;;;;;;26.30;99.90;;;;;;5089601;28;20247;-71
2021/06/10 07:31:40;;;;;;;;;;;26.20;99.90;;;;;;5084739;28;19942;-71
2021/06/10 07:34:06;;;;;;;;;;;26.70;99.90;;;;;;5087526;28;20293;-71
2021/06/10 07:36:35;;;;;;;;;;;26.90;99.70;;;;;;5085418;28;19918;-71
2021/06/10 07:39:03;;;;;;;;;;;26.90;98.40;;;;;;5088176;28;20396;-71
2021/06/10 07:41:28;;;;;;;;;;;27.00;99.60;;;;;;5093326;28;19916;-73
2021/06/10 07:43:54;;;;;;;;;;;26.70;99.30;;;;;;5094873;28;19908;-71
2021/06/10 07:46:20;;;;;;;;;;;26.90;99.90;;;;;;5094081;28;19916;-71
2021/06/10 07:48:45;;;;;;;;;;;27.30;99.90;;;;;;5094538;28;20280;-71
2021/06/10 07:51:11;;;;;;;;;;;27.50;98.40;;;;;;5094767;28;20003;-72
2021/06/10 07:53:37;;;;;;;;;;;27.30;99.60;;;;;;5093037;28;19908;-73
2021/06/10 07:56:04;;;;;;;;;;;27.60;98.00;;;;;;5093246;28;20006;-74
2021/06/10 07:58:30;;;;;;;;;;;27.80;99.90;;;;;;5091451;28;19923;-71
2021/06/10 08:00:56;;;;;;;;;;;28.00;99.50;;;;;;5081972;28;19913;-71
2021/06/10 08:03:21;;;;;;;;;;;28.10;97.90;;;;;;5089946;28;19973;-72
2021/06/10 08:05:47;;;;;;;;;;;28.30;99.90;;;;;;5085730;28;19908;-72
2021/06/10 08:08:13;;;;;;;;;;;28.20;96.40;;;;;;5089990;28;19912;-73
2021/06/10 08:10:40;;;;;;;;;;;28.30;97.10;;;;;;5091802;28;19916;-73
2021/06/10 08:13:06;;;;;;;;;;;28.30;98.30;;;;;;5087179;28;19927;-72
2021/06/10 08:15:32;;;;;;;;;;;28.50;96.70;;;;;;5091524;28;19912;-72
2021/06/10 08:17:58;;;;;;;;;;;28.90;98.20;;;;;;5093347;28;19931;-74
2021/06/10 08:20:25;;;;;;;;;;;29.00;95.20;;;;;;5094189;28;19912;-72
2021/06/10 08:22:55;;;;;;;;;;;28.80;95.50;;;;;;5087398;28;19915;-71
2021/06/10 08:25:20;;;;;;;;;;;28.20;94.80;;;;;;5093634;28;20369;-71
2021/06/10 08:27:46;;;;;;;;;;;28.10;97.00;;;;;;5084332;28;20001;-72
2021/06/10 08:30:13;;;;;;;;;;;28.00;97.20;;;;;;5087073;28;20021;-71
2021/06/10 08:32:39;;;;;;;;;;;28.20;95.80;;;;;;5085138;28;19909;-72
2021/06/10 08:35:05;;;;;;;;;;;28.00;94.50;;;;;;5088993;28;19908;-71
2021/06/10 08:37:31;;;;;;;;;;;27.80;95.80;;;;;;5091296;28;19961;-72
2021/06/10 08:39:57;;;;;;;;;;;27.90;98.20;;;;;;5089482;28;19916;-71
2021/06/10 08:42:23;;;;;;;;;;;28.30;97.10;;;;;;5087575;28;20250;-72
2021/06/10 08:44:49;;;;;;;;;;;28.30;95.80;;;;;;5074125;28;19913;-71
2021/06/10 08:47:15;;;;;;;;;;;28.50;96.40;;;;;;5081919;28;19912;-71
2021/06/10 08:49:45;;;;;;;;;;;28.60;96.20;;;;;;5084445;28;19912;-71
2021/06/10 08:52:12;;;;;;;;;;;28.60;94.90;;;;;;5080796;28;19957;-74
2021/06/10 08:54:37;;;;;;;;;;;28.80;96.80;;;;;;5077702;28;19912;-71
2021/06/10 08:57:03;;;;;;;;;;;29.10;93.60;;;;;;5083248;28;20328;-71
2021/06/10 08:59:29;;;;;;;;;;;29.30;97.40;;;;;;5084731;28;20383;-71
2021/06/10 09:01:54;;;;;;;;;;;29.40;95.80;;;;;;5079735;28;20010;-73
2021/06/10 09:04:19;;;;;;;;;;;29.80;95.30;;;;;;5086203;28;19919;-71
2021/06/10 09:06:50;;;;;;;;;;;29.60;94.40;;;;;;5079797;28;20377;-71
2021/06/10 09:09:19;;;;;;;;;;;29.70;94.10;;;;;;5077274;28;19912;-71
2021/06/10 09:11:44;;;;;;;;;;;29.40;94.20;;;;;;5087998;28;20007;-71
2021/06/10 09:14:10;;;;;;;;;;;29.40;95.30;;;;;;5094281;28;19986;-71
2021/06/10 09:16:37;;;;;;;;;;;29.30;92.90;;;;;;5089604;28;19973;-70
2021/06/10 09:19:14;;;;;;;;;;;29.40;96.20;;;;;;5082009;28;19916;-72
2021/06/10 09:21:41;;;;;;;;;;;29.60;95.20;;;;;;5092453;28;19916;-72
2021/06/10 09:24:20;;;;;;;;;;;30.10;94.00;;;;;;5094502;28;19912;-71
2021/06/10 09:26:47;;;;;;;;;;;30.20;94.40;;;;;;5079589;28;20357;-71
2021/06/10 09:29:13;;;;;;;;;;;30.50;94.90;;;;;;5088847;28;19977;-71
2021/06/10 09:31:39;;;;;;;;;;;30.60;91.30;;;;;;5080234;28;20006;-71
2021/06/10 09:34:08;;;;;;;;;;;30.70;94.50;;;;;;5079925;28;19927;-71
2021/06/10 09:36:39;;;;;;;;;;;30.30;92.50;;;;;;5085626;28;19935;-72
2021/06/10 09:39:07;;;;;;;;;;;30.40;94.00;;;;;;5081766;28;19923;-73
2021/06/10 09:41:33;;;;;;;;;;;30.60;91.10;;;;;;5082724;28;20024;-71
2021/06/10 09:43:59;;;;;;;;;;;30.90;94.40;;;;;;5082132;28;20466;-71
2021/06/10 09:46:24;;;;;;;;;;;31.20;93.20;;;;;;5079596;28;19916;-72
2021/06/10 09:49:05;;;;;;;;;;;30.90;91.00;;;;;;5077101;28;20174;-71
2021/06/10 09:51:31;;;;;;;;;;;30.30;91.30;;;;;;5079260;28;19913;-71
2021/06/10 09:53:58;;;;;;;;;;;29.50;92.70;;;;;;5085494;28;19919;-72
2021/06/10 09:56:24;;;;;;;;;;;28.80;93.10;;;;;;5089721;28;19952;-72
2021/06/10 09:58:55;;;;;;;;;;;28.20;93.70;;;;;;5085344;28;20446;-74
2021/06/10 10:01:22;;;;;;;;;;;27.70;94.40;;;;;;5076971;28;19950;-72
2021/06/10 10:03:48;;;;;;;;;;;27.50;95.00;;;;;;5086768;28;19908;-71
2021/06/10 10:08:48;;;;;;;;;;;27.10;94.30;;;;;;5089595;28;19912;-71
2021/06/10 10:11:14;;;;;;;;;;;26.90;94.80;;;;;;5091561;28;19908;-72
2021/06/10 10:13:40;;;;;;;;;;;27.00;96.60;;;;;;5091879;28;19919;-75
2021/06/10 10:16:06;;;;;;;;;;;27.10;95.20;;;;;;5091012;28;19908;-71
2021/06/10 10:18:32;;;;;;;;;;;27.10;95.00;;;;;;5090527;28;19947;-75
2021/06/10 10:21:01;;;;;;;;;;;26.90;95.90;;;;;;5084435;28;19955;-71
2021/06/10 10:23:27;;;;;;;;;;;26.70;95.00;;;;;;5086817;28;19916;-72
2021/06/10 10:25:58;;;;;;;;;;;26.60;95.90;;;;;;5078142;28;19912;-72
2021/06/10 10:28:25;;;;;;;;;;;26.70;97.80;;;;;;5091402;28;19908;-71
2021/06/10 10:30:51;;;;;;;;;;;26.90;97.30;;;;;;5084115;28;19957;-72
2021/06/10 10:33:17;;;;;;;;;;;27.20;98.70;;;;;;5081770;28;19916;-71
2021/06/10 10:35:50;;;;;;;;;;;27.80;97.90;;;;;;5089975;28;20332;-72
2021/06/10 10:38:19;;;;;;;;;;;28.40;98.30;;;;;;5087895;28;19912;-71
2021/06/10 10:40:53;;;;;;;;;;;29.00;95.70;;;;;;5090961;28;19916;-70
2021/06/10 10:43:20;;;;;;;;;;;29.30;94.10;;;;;;5087089;28;19919;-74
2021/06/10 10:45:49;;;;;;;;;;;29.40;95.10;;;;;;5077216;28;20311;-72
2021/06/10 10:48:31;;;;;;;;;;;29.50;94.70;;;;;;5095591;28;19920;-75
2021/06/10 10:50:56;;;;;;;;;;;29.70;93.30;;;;;;5073386;28;19913;-71
2021/06/10 10:53:23;;;;;;;;;;;29.40;93.70;;;;;;5075223;28;19912;-71
2021/06/10 10:56:05;;;;;;;;;;;29.20;94.00;;;;;;5084557;28;19912;-71
2021/06/10 10:58:31;;;;;;;;;;;28.90;95.80;;;;;;5080843;28;19962;-71
2021/06/10 11:01:00;;;;;;;;;;;28.30;94.00;;;;;;5080931;28;19916;-71
2021/06/10 11:03:28;;;;;;;;;;;28.00;95.60;;;;;;5083011;28;19955;-72
2021/06/10 11:05:54;;;;;;;;;;;28.00;96.70;;;;;;5086955;28;20578;-71
2021/06/10 11:08:22;;;;;;;;;;;28.50;96.70;;;;;;5108679;28;19912;-71
2021/06/10 11:10:56;;;;;;;;;;;28.90;96.10;;;;;;5111283;28;19995;-72
2021/06/10 11:13:23;;;;;;;;;;;29.10;94.60;;;;;;5084513;28;19916;-73
2021/06/10 11:15:52;;;;;;;;;;;29.30;94.80;;;;;;5076794;28;20024;-71
2021/06/10 11:18:36;;;;;;;;;;;29.40;95.10;;;;;;5079141;28;20276;-71
2021/06/10 11:21:02;;;;;;;;;;;29.60;92.20;;;;;;5076409;28;19965;-71
2021/06/10 11:23:28;;;;;;;;;;;29.70;92.60;;;;;;5071431;28;19916;-73
2021/06/10 11:25:57;;;;;;;;;;;29.50;90.80;;;;;;5080527;28;19916;-73
2021/06/10 11:28:24;;;;;;;;;;;29.30;91.00;;;;;;5072182;28;20050;-71
2021/06/10 11:30:51;;;;;;;;;;;29.40;92.40;;;;;;5083989;28;19962;-70
2021/06/10 11:33:17;;;;;;;;;;;29.90;92.40;;;;;;5080958;28;20385;-71
2021/06/10 11:35:46;;;;;;;;;;;30.20;92.30;;;;;;5089186;28;19915;-71
2021/06/10 11:38:21;;;;;;;;;;;30.50;85.50;;;;;;5085950;28;19977;-71
2021/06/10 11:40:52;;;;;;;;;;;30.80;90.80;;;;;;5070513;28;19916;-71
2021/06/10 11:43:19;;;;;;;;;;;31.10;87.90;;;;;;5085157;28;19919;-72
2021/06/10 11:45:46;;;;;;;;;;;31.20;86.80;;;;;;5085035;28;20345;-72
2021/06/10 11:48:11;;;;;;;;;;;31.00;85.90;;;;;;5081208;28;19912;-70
2021/06/10 11:50:38;;;;;;;;;;;31.10;87.50;;;;;;5079754;28;19913;-70
2021/06/10 11:53:08;;;;;;;;;;;31.20;87.10;;;;;;5079791;28;19912;-71
2021/06/10 11:55:35;;;;;;;;;;;30.90;86.10;;;;;;5073903;28;19913;-70
2021/06/10 11:58:03;;;;;;;;;;;30.70;89.90;;;;;;5077033;28;20010;-71
2021/06/10 12:00:29;;;;;;;;;;;30.30;88.40;;;;;;5085087;28;20340;-71
2021/06/10 12:02:59;;;;;;;;;;;29.90;93.00;;;;;;5082196;28;20396;-73
2021/06/10 12:05:25;;;;;;;;;;;29.40;91.50;;;;;;5076443;28;20577;-71
2021/06/10 12:08:04;;;;;;;;;;;28.60;89.30;;;;;;5088374;28;19908;-71
2021/06/10 12:10:30;;;;;;;;;;;28.00;93.00;;;;;;5075024;28;19917;-70
2021/06/10 12:12:55;;;;;;;;;;;26.80;95.20;;;;;;5074698;28;20490;-70
2021/06/10 12:15:23;;;;;;;;;;;25.90;96.40;;;;;;5090104;28;20383;-72
2021/06/10 12:18:14;;;;;;;;;;;25.20;96.40;;;;;;5087057;28;19912;-70
2021/06/10 12:20:42;;;;;;;;;;;24.60;98.30;;;;;;5073605;28;19924;-70
2021/06/10 12:23:15;;;;;;;;;;;24.10;99.70;;;;;;5071673;28;19912;-71
2021/06/10 12:25:41;;;;;;;;;;;23.80;99.90;;;;;;5084950;28;19912;-70
2021/06/10 12:28:06;;;;;;;;;;;23.60;99.90;;;;;;5093521;28;20231;-70
2021/06/10 12:30:38;;;;;;;;;;;23.50;99.90;;;;;;5087546;28;19916;-69
2021/06/10 12:33:13;;;;;;;;;;;23.30;99.90;;;;;;5076888;28;19912;-70
2021/06/10 12:35:39;;;;;;;;;;;23.30;99.90;;;;;;5092522;28;19912;-72
2021/06/10 12:38:04;;;;;;;;;;;23.40;99.90;;;;;;5088785;28;19914;-70
2021/06/10 12:40:38;;;;;;;;;;;23.40;99.90;;;;;;5093005;28;20007;-70
2021/06/10 12:43:07;;;;;;;;;;;23.70;99.90;;;;;;5088381;28;19923;-69
2021/06/10 12:45:33;;;;;;;;;;;24.40;99.90;;;;;;5082914;28;20332;-70
2021/06/10 12:47:59;;;;;;;;;;;25.30;99.90;;;;;;5087674;28;19908;-70
2021/06/10 12:50:24;;;;;;;;;;;26.30;99.90;;;;;;5093170;28;19912;-70
2021/06/10 12:52:50;;;;;;;;;;;27.20;99.90;;;;;;5087998;28;19919;-72
2021/06/10 12:55:24;;;;;;;;;;;28.00;99.90;;;;;;5084100;28;19912;-70
2021/06/10 12:57:54;;;;;;;;;;;28.70;99.90;;;;;;5076405;28;19920;-73
2021/06/10 13:00:29;;;;;;;;;;;29.20;97.90;;;;;;5084239;28;19924;-73
2021/06/10 13:03:01;;;;;;;;;;;29.60;96.00;;;;;;5092117;28;19912;-71
2021/06/10 13:05:26;;;;;;;;;;;29.80;91.70;;;;;;5082298;28;19946;-71
2021/06/10 13:07:57;;;;;;;;;;;30.20;93.70;;;;;;5087736;28;19947;-71
2021/06/10 13:10:33;;;;;;;;;;;30.30;93.10;;;;;;5088235;28;19908;-73
2021/06/10 13:12:58;;;;;;;;;;;29.90;93.80;;;;;;5088165;28;19991;-72
2021/06/10 13:15:25;;;;;;;;;;;29.70;94.60;;;;;;5092072;28;19951;-71
2021/06/10 13:17:51;;;;;;;;;;;29.70;94.80;;;;;;5090784;28;19908;-70
2021/06/10 13:20:35;;;;;;;;;;;29.20;93.40;;;;;;5104328;28;20292;-70
2021/06/10 13:23:01;;;;;;;;;;;28.30;94.80;;;;;;5113370;28;19912;-73
2021/06/10 13:25:26;;;;;;;;;;;27.80;97.30;;;;;;5112522;28;19915;-71
2021/06/10 13:28:06;;;;;;;;;;;27.40;95.40;;;;;;5112498;28;19908;-70
2021/06/10 13:30:32;;;;;;;;;;;27.10;96.30;;;;;;5091320;28;20020;-71
2021/06/10 13:32:57;;;;;;;;;;;26.60;95.60;;;;;;5086197;28;20004;-71
2021/06/10 13:35:25;;;;;;;;;;;26.50;96.20;;;;;;5086047;28;19919;-71
2021/06/10 13:37:50;;;;;;;;;;;26.70;95.20;;;;;;5097395;28;19972;-71
2021/06/10 13:40:16;;;;;;;;;;;27.00;91.00;;;;;;5109324;28;20213;-71
2021/06/10 13:42:49;;;;;;;;;;;27.60;92.60;;;;;;5099732;28;19919;-70
2021/06/10 13:45:15;;;;;;;;;;;28.00;92.70;;;;;;5087000;28;20105;-71
2021/06/10 13:47:40;;;;;;;;;;;28.20;91.30;;;;;;5088776;28;20434;-70
2021/06/10 13:50:06;;;;;;;;;;;28.40;92.20;;;;;;5081128;28;19913;-70
2021/06/10 13:52:32;;;;;;;;;;;28.30;94.10;;;;;;5083772;28;20424;-71
2021/06/10 13:54:57;;;;;;;;;;;28.20;93.20;;;;;;5079056;28;20003;-72
2021/06/10 13:57:22;;;;;;;;;;;28.30;95.50;;;;;;5081664;28;20008;-70
2021/06/10 13:59:48;;;;;;;;;;;28.30;96.70;;;;;;5084619;28;19923;-70
2021/06/10 14:02:15;;;;;;;;;;;28.30;96.60;;;;;;5081869;28;19916;-71
2021/06/10 14:04:40;;;;;;;;;;;28.00;96.40;;;;;;5083240;28;20360;-70
2021/06/10 14:07:07;;;;;;;;;;;27.70;96.00;;;;;;5089979;28;19962;-70
2021/06/10 14:09:32;;;;;;;;;;;27.30;96.50;;;;;;5091580;28;19916;-70
2021/06/10 14:11:58;;;;;;;;;;;26.90;95.40;;;;;;5091732;28;19915;-73
2021/06/10 14:14:23;;;;;;;;;;;26.80;98.60;;;;;;5090929;28;19915;-70
2021/06/10 14:16:49;;;;;;;;;;;26.70;98.40;;;;;;5090202;28;19950;-70